Time;durP1;ratioP1;P1;durP2;ratioP2;P2;SDS_P1;SDS_P2;PMS_P1;PMS_P2;Temp;Humidity;BMP_temperature;BMP_pressure;BME280_temperature;BME280_humidity;BME280_pressure;Samples;Min_cycle;Max_cycle;Signal;HPM_P1;HPM_P2
2022/07/19 00:01:24;;;;;;;0.30;0.30;;;27.90;79.10;;;;;;5053231;28;20056;-50
2022/07/19 00:03:51;;;;;;;0.20;0.20;;;27.90;79.10;;;;;;5049128;28;20326;-55
2022/07/19 00:06:19;;;;;;;0.32;0.32;;;27.90;79.20;;;;;;5066877;28;20048;-53
2022/07/19 00:08:46;;;;;;;1.90;0.95;;;27.80;79.10;;;;;;5052102;28;20079;-57
2022/07/19 00:11:13;;;;;;;0.30;0.30;;;27.90;79.20;;;;;;5061432;28;20048;-53
2022/07/19 00:13:41;;;;;;;0.20;0.20;;;27.80;79.10;;;;;;5056233;28;20084;-50
2022/07/19 00:16:08;;;;;;;0.22;0.22;;;27.90;79.20;;;;;;5045465;28;20044;-53
2022/07/19 00:18:36;;;;;;;0.47;0.47;;;27.80;79.10;;;;;;5059365;28;20079;-52
2022/07/19 00:21:04;;;;;;;0.30;0.30;;;27.80;79.20;;;;;;5036871;28;20045;-53
2022/07/19 00:23:31;;;;;;;;;;;27.80;79.20;;;;;;5052744;28;20539;-53
2022/07/19 00:25:58;;;;;;;1.10;0.50;;;27.80;79.20;;;;;;5046068;28;20653;-52
2022/07/19 00:28:26;;;;;;;;;;;27.80;79.20;;;;;;5061023;28;20048;-55
2022/07/19 00:30:53;;;;;;;0.50;0.50;;;27.80;79.20;;;;;;5059053;28;19924;-55
2022/07/19 00:33:20;;;;;;;0.30;0.30;;;27.80;79.20;;;;;;5049530;28;20147;-56
2022/07/19 00:35:48;;;;;;;;;;;27.80;79.30;;;;;;5051585;28;20052;-55
2022/07/19 00:38:15;;;;;;;0.22;0.22;;;27.80;79.20;;;;;;5053407;28;19932;-52
2022/07/19 00:40:42;;;;;;;;;;;27.80;79.30;;;;;;5060862;28;20055;-54
2022/07/19 00:43:12;;;;;;;0.20;0.20;;;27.80;79.30;;;;;;5053434;28;19928;-52
2022/07/19 00:45:40;;;;;;;0.20;0.20;;;27.80;79.30;;;;;;5053512;28;20497;-51
2022/07/19 00:48:07;;;;;;;0.30;0.30;;;27.80;79.30;;;;;;5049792;28;20496;-56
2022/07/19 00:50:35;;;;;;;1.17;0.75;;;27.70;79.20;;;;;;5046575;28;20053;-57
2022/07/19 00:53:05;;;;;;;0.40;0.40;;;27.70;79.30;;;;;;5055394;28;20408;-56
2022/07/19 00:55:38;;;;;;;0.52;0.52;;;27.80;79.40;;;;;;5046224;28;20048;-56
2022/07/19 00:58:06;;;;;;;0.55;0.55;;;27.80;79.30;;;;;;5052386;28;20053;-55
2022/07/19 01:00:34;;;;;;;1.08;0.73;;;27.70;79.30;;;;;;5052949;28;20055;-54
2022/07/19 01:03:02;;;;;;;1.85;1.08;;;27.80;79.40;;;;;;5059447;28;20432;-52
2022/07/19 01:05:29;;;;;;;;;;;27.70;79.30;;;;;;5055491;28;20044;-52
2022/07/19 01:07:57;;;;;;;0.20;0.20;;;27.70;79.30;;;;;;5064376;28;20169;-54
2022/07/19 01:10:24;;;;;;;0.40;0.40;;;27.70;79.40;;;;;;5055569;28;20053;-57
2022/07/19 01:12:52;;;;;;;0.30;0.30;;;27.70;79.30;;;;;;5064763;28;20044;-57
2022/07/19 01:15:22;;;;;;;0.30;0.30;;;27.70;79.40;;;;;;5058080;28;20064;-54
2022/07/19 01:17:50;;;;;;;0.20;0.20;;;27.70;79.40;;;;;;5062908;28;20048;-51
2022/07/19 01:20:18;;;;;;;0.30;0.30;;;27.70;79.40;;;;;;5049517;28;20061;-55
2022/07/19 01:22:45;;;;;;;0.20;0.20;;;27.70;79.40;;;;;;5049712;28;20409;-53
2022/07/19 01:25:15;;;;;;;0.20;0.20;;;27.70;79.40;;;;;;5041871;28;20045;-55
2022/07/19 01:27:45;;;;;;;0.38;0.38;;;27.70;79.40;;;;;;5057167;28;20052;-54
2022/07/19 01:30:21;;;;;;;0.45;0.45;;;27.70;79.40;;;;;;5058460;28;20041;-53
2022/07/19 01:32:49;;;;;;;0.30;0.30;;;27.70;79.40;;;;;;5048848;28;20363;-55
2022/07/19 01:35:18;;;;;;;0.43;0.43;;;27.70;79.40;;;;;;5060054;28;20436;-53
2022/07/19 01:37:46;;;;;;;1.10;0.65;;;27.70;79.40;;;;;;5052998;28;20052;-53
2022/07/19 01:40:15;;;;;;;0.68;0.68;;;27.70;79.40;;;;;;5049631;28;20049;-55
2022/07/19 01:42:44;;;;;;;1.10;0.52;;;27.70;79.40;;;;;;5061963;28;20056;-55
2022/07/19 01:45:12;;;;;;;0.20;0.20;;;27.70;79.40;;;;;;5068288;28;20154;-55
2022/07/19 01:47:43;;;;;;;0.63;0.63;;;27.70;79.40;;;;;;5057715;28;20040;-51
2022/07/19 01:50:14;;;;;;;0.95;0.85;;;27.70;80.00;;;;;;5050202;28;20045;-54
2022/07/19 01:52:41;;;;;;;0.30;0.30;;;27.70;79.40;;;;;;5048392;28;20629;-56
2022/07/19 01:55:17;;;;;;;0.52;0.52;;;27.70;79.50;;;;;;5048944;28;20043;-52
2022/07/19 01:57:44;;;;;;;0.30;0.30;;;27.70;79.40;;;;;;5048932;28;20143;-54
2022/07/19 02:00:12;;;;;;;0.20;0.20;;;27.60;79.40;;;;;;5059024;28;20041;-57
2022/07/19 02:02:41;;;;;;;1.75;1.08;;;27.70;79.50;;;;;;5058598;28;20048;-52
2022/07/19 02:05:09;;;;;;;0.80;0.77;;;27.60;79.40;;;;;;5051807;28;20045;-52
2022/07/19 02:07:39;;;;;;;0.68;0.60;;;27.60;79.40;;;;;;5048322;28;20082;-55
2022/07/19 02:10:08;;;;;;;0.75;0.40;;;27.60;79.40;;;;;;5049225;28;20048;-55
2022/07/19 02:12:36;;;;;;;0.20;0.20;;;27.70;79.50;;;;;;5061697;28;20044;-54
2022/07/19 02:15:04;;;;;;;0.30;0.30;;;27.60;79.40;;;;;;5053828;28;20047;-53
2022/07/19 02:17:31;;;;;;;0.75;0.75;;;27.60;79.50;;;;;;5050435;28;20057;-51
2022/07/19 02:19:58;;;;;;;0.20;0.20;;;27.60;79.50;;;;;;5048513;28;20052;-56
2022/07/19 02:22:26;;;;;;;0.30;0.30;;;27.60;79.50;;;;;;5052698;28;20064;-56
2022/07/19 02:24:53;;;;;;;0.55;0.55;;;27.60;79.50;;;;;;5059767;28;20048;-54
2022/07/19 02:27:21;;;;;;;0.25;0.25;;;27.60;79.60;;;;;;5050333;28;20056;-55
2022/07/19 02:29:48;;;;;;;0.57;0.52;;;27.60;79.60;;;;;;5041194;28;20387;-57
2022/07/19 02:32:16;;;;;;;;;;;27.60;79.60;;;;;;5048640;28;20044;-51
2022/07/19 02:34:44;;;;;;;;;;;27.60;79.50;;;;;;5050431;28;19928;-54
2022/07/19 02:37:11;;;;;;;0.40;0.40;;;27.60;79.60;;;;;;5048168;28;19924;-52
2022/07/19 02:39:38;;;;;;;0.50;0.50;;;27.60;79.60;;;;;;5059410;28;20061;-52
2022/07/19 02:42:06;;;;;;;0.20;0.20;;;27.60;79.60;;;;;;5066985;28;20052;-53
2022/07/19 02:44:33;;;;;;;0.73;0.50;;;27.50;79.60;;;;;;5030851;28;20041;-57
2022/07/19 02:47:00;;;;;;;0.32;0.32;;;27.50;79.60;;;;;;5036559;28;20049;-55
2022/07/19 02:49:27;;;;;;;0.20;0.20;;;27.50;79.50;;;;;;5052767;28;20052;-57
2022/07/19 02:51:55;;;;;;;0.47;0.47;;;27.50;79.60;;;;;;5039537;28;20051;-50
2022/07/19 02:54:22;;;;;;;0.73;0.70;;;27.50;79.70;;;;;;5056656;28;20053;-51
2022/07/19 02:56:49;;;;;;;0.88;0.88;;;27.50;79.70;;;;;;5050878;28;20452;-54
2022/07/19 02:59:16;;;;;;;0.70;0.70;;;27.50;79.70;;;;;;5054612;28;20082;-54
2022/07/19 03:01:44;;;;;;;0.40;0.40;;;27.50;79.70;;;;;;5047656;28;20424;-51
2022/07/19 03:04:11;;;;;;;0.30;0.30;;;27.50;79.70;;;;;;5044364;28;20047;-56
2022/07/19 03:06:39;;;;;;;0.63;0.63;;;27.50;80.30;;;;;;5047498;28;20045;-53
2022/07/19 03:09:06;;;;;;;0.98;0.75;;;27.50;79.80;;;;;;5052359;28;20456;-54
2022/07/19 03:11:33;;;;;;;0.20;0.20;;;27.40;79.70;;;;;;5052758;28;20036;-54
2022/07/19 03:14:01;;;;;;;;;;;27.40;79.70;;;;;;5066154;28;20507;-55
2022/07/19 03:16:28;;;;;;;;;;;27.40;79.70;;;;;;5058179;28;19921;-57
2022/07/19 03:18:55;;;;;;;;;;;27.40;79.80;;;;;;5057984;28;19931;-56
2022/07/19 03:21:23;;;;;;;1.75;0.63;;;27.40;79.80;;;;;;5062362;28;20422;-53
2022/07/19 03:23:50;;;;;;;;;;;27.40;79.80;;;;;;5047419;28;20049;-54
2022/07/19 03:26:17;;;;;;;0.30;0.30;;;27.40;79.80;;;;;;5064362;28;19920;-56
2022/07/19 03:28:45;;;;;;;0.93;0.75;;;27.40;79.90;;;;;;5047889;28;20044;-53
2022/07/19 03:31:12;;;;;;;0.38;0.38;;;27.40;79.90;;;;;;5051440;28;20044;-57
2022/07/19 03:33:40;;;;;;;0.20;0.20;;;27.40;79.90;;;;;;5055907;28;20049;-53
2022/07/19 03:36:07;;;;;;;0.30;0.30;;;27.40;79.90;;;;;;5049458;28;20041;-55
2022/07/19 03:38:34;;;;;;;0.20;0.20;;;27.40;79.90;;;;;;5046956;28;20048;-57
2022/07/19 03:41:02;;;;;;;0.20;0.20;;;27.40;80.50;;;;;;5056429;28;20425;-56
2022/07/19 03:43:29;;;;;;;0.57;0.57;;;27.40;80.00;;;;;;5047058;28;20052;-52
2022/07/19 03:45:56;;;;;;;0.30;0.30;;;27.40;80.00;;;;;;5055391;28;20041;-55
2022/07/19 03:48:24;;;;;;;0.20;0.20;;;27.40;80.00;;;;;;5064474;28;20531;-52
2022/07/19 03:50:51;;;;;;;1.00;0.80;;;27.40;80.00;;;;;;5054362;28;20052;-54
2022/07/19 03:53:18;;;;;;;0.50;0.50;;;27.30;79.90;;;;;;5046613;28;20051;-56
2022/07/19 03:55:46;;;;;;;0.40;0.40;;;27.40;80.00;;;;;;5059475;28;20389;-51
2022/07/19 03:58:13;;;;;;;0.68;0.68;;;27.40;80.00;;;;;;5047046;28;20052;-55
2022/07/19 04:00:40;;;;;;;0.30;0.30;;;27.40;80.00;;;;;;5057541;28;20037;-55
2022/07/19 04:03:07;;;;;;;0.57;0.57;;;27.30;80.00;;;;;;5046358;28;20071;-51
2022/07/19 04:05:35;;;;;;;0.20;0.20;;;27.30;80.00;;;;;;5058720;28;20044;-53
2022/07/19 04:08:02;;;;;;;0.20;0.20;;;27.30;80.00;;;;;;5046679;28;20052;-56
2022/07/19 04:10:30;;;;;;;0.30;0.30;;;27.40;80.10;;;;;;5049664;28;20052;-53
2022/07/19 04:12:57;;;;;;;0.25;0.25;;;27.30;80.00;;;;;;5057346;28;20044;-51
2022/07/19 04:15:25;;;;;;;0.40;0.40;;;27.30;80.00;;;;;;5051087;28;20078;-55
2022/07/19 04:17:52;;;;;;;0.45;0.45;;;27.30;80.00;;;;;;5047016;28;20044;-53
2022/07/19 04:20:19;;;;;;;0.55;0.55;;;27.30;80.10;;;;;;5033823;28;20056;-54
2022/07/19 04:22:46;;;;;;;0.30;0.30;;;27.30;80.10;;;;;;5055451;28;20045;-53
2022/07/19 04:25:14;;;;;;;0.20;0.20;;;27.30;80.10;;;;;;5049545;28;20045;-56
2022/07/19 04:27:41;;;;;;;0.68;0.68;;;27.30;80.10;;;;;;5064814;28;20386;-53
2022/07/19 04:30:09;;;;;;;1.20;1.10;;;27.30;80.20;;;;;;5052556;28;20052;-57
2022/07/19 04:32:36;;;;;;;0.30;0.30;;;27.30;80.10;;;;;;5049860;28;20053;-54
2022/07/19 04:35:05;;;;;;;0.55;0.50;;;27.30;80.10;;;;;;5045233;28;20048;-54
2022/07/19 04:37:32;;;;;;;1.33;0.93;;;27.30;80.10;;;;;;5050185;28;20052;-55
2022/07/19 04:40:00;;;;;;;0.30;0.30;;;27.30;80.10;;;;;;5051019;28;20055;-52
2022/07/19 04:42:27;;;;;;;0.20;0.20;;;27.30;80.20;;;;;;5062403;28;20416;-53
2022/07/19 04:44:54;;;;;;;1.20;1.10;;;27.30;80.10;;;;;;5051305;28;20052;-52
2022/07/19 04:47:22;;;;;;;0.65;0.65;;;27.30;80.20;;;;;;5050690;28;20049;-55
2022/07/19 04:49:49;;;;;;;0.20;0.20;;;27.30;80.20;;;;;;5065615;28;20414;-57
2022/07/19 04:52:16;;;;;;;0.38;0.38;;;27.30;80.10;;;;;;5049641;28;20478;-54
2022/07/19 04:54:44;;;;;;;0.85;0.55;;;27.30;80.10;;;;;;5050892;28;20057;-54
2022/07/19 04:57:11;;;;;;;0.52;0.52;;;27.30;80.10;;;;;;5055447;28;20044;-56
2022/07/19 04:59:38;;;;;;;0.20;0.20;;;27.30;80.10;;;;;;5060382;28;20063;-55
2022/07/19 05:02:06;;;;;;;0.40;0.40;;;27.40;80.20;;;;;;5057448;28;20049;-58
2022/07/19 05:04:33;;;;;;;0.40;0.40;;;27.40;80.00;;;;;;5051864;28;20053;-55
2022/07/19 05:07:01;;;;;;;0.20;0.20;;;27.40;79.90;;;;;;5049492;28;20045;-53
2022/07/19 05:09:29;;;;;;;0.20;0.20;;;27.40;80.00;;;;;;5056691;28;20060;-55
2022/07/19 05:11:56;;;;;;;;;;;27.40;80.00;;;;;;5057597;28;20048;-57
2022/07/19 05:14:23;;;;;;;;;;;27.40;79.90;;;;;;5062386;28;19932;-54
2022/07/19 05:16:50;;;;;;;0.30;0.30;;;27.40;80.00;;;;;;5049631;28;19996;-54
2022/07/19 05:19:18;;;;;;;0.30;0.30;;;27.40;80.00;;;;;;5055132;28;20049;-54
2022/07/19 05:21:45;;;;;;;0.50;0.50;;;27.40;80.00;;;;;;5062843;28;20041;-50
2022/07/19 05:24:13;;;;;;;1.55;0.50;;;27.40;80.00;;;;;;5061690;28;20506;-56
2022/07/19 05:26:40;;;;;;;;;;;27.40;80.00;;;;;;5062607;28;20049;-56
2022/07/19 05:29:07;;;;;;;0.38;0.38;;;27.40;80.00;;;;;;5050390;28;19927;-55
2022/07/19 05:31:35;;;;;;;;;;;27.40;79.90;;;;;;5050027;28;20079;-54
2022/07/19 05:34:03;;;;;;;2.70;1.55;;;27.40;79.90;;;;;;5051692;28;20299;-56
2022/07/19 05:36:30;;;;;;;0.40;0.40;;;27.40;79.90;;;;;;5065424;28;20036;-56
2022/07/19 05:38:57;;;;;;;0.65;0.65;;;27.40;79.90;;;;;;5051387;28;20057;-54
2022/07/19 05:41:25;;;;;;;0.25;0.25;;;27.40;80.00;;;;;;5064648;28;20056;-52
2022/07/19 05:43:52;;;;;;;0.40;0.40;;;27.30;79.90;;;;;;5058208;28;20052;-57
2022/07/19 05:46:20;;;;;;;0.88;0.63;;;27.30;80.10;;;;;;5049873;28;20056;-54
2022/07/19 05:48:48;;;;;;;1.08;0.75;;;27.30;80.10;;;;;;5049102;28;20148;-54
2022/07/19 05:51:15;;;;;;;1.17;0.55;;;27.30;80.10;;;;;;5064123;28;20044;-54
2022/07/19 05:53:43;;;;;;;1.45;0.95;;;27.30;80.10;;;;;;5048838;28;20063;-55
2022/07/19 05:56:11;;;;;;;0.40;0.40;;;27.30;80.10;;;;;;5060418;28;20055;-53
2022/07/19 05:58:38;;;;;;;;;;;27.30;80.20;;;;;;5049816;28;20060;-53
2022/07/19 06:01:18;;;;;;;0.38;0.32;;;27.30;80.20;;;;;;5059094;28;19924;-51
2022/07/19 06:03:52;;;;;;;0.40;0.40;;;27.30;80.20;;;;;;5049427;28;20048;-55
2022/07/19 06:06:27;;;;;;;0.47;0.47;;;27.30;80.20;;;;;;5053122;28;20060;-51
2022/07/19 06:08:56;;;;;;;0.60;0.60;;;27.20;80.10;;;;;;5048521;28;20045;-53
2022/07/19 06:11:24;;;;;;;1.55;0.93;;;27.30;80.20;;;;;;5056840;28;20059;-53
2022/07/19 06:13:52;;;;;;;0.57;0.57;;;27.30;80.20;;;;;;5060408;28;20605;-54
2022/07/19 06:16:19;;;;;;;0.40;0.35;;;27.30;80.20;;;;;;5055560;28;20056;-54
2022/07/19 06:18:47;;;;;;;0.47;0.47;;;27.30;80.10;;;;;;5050430;28;20512;-56
2022/07/19 06:21:18;;;;;;;0.45;0.45;;;27.30;80.10;;;;;;5061574;28;20048;-57
2022/07/19 06:23:47;;;;;;;0.40;0.40;;;27.30;80.10;;;;;;5049722;28;20049;-55
2022/07/19 06:26:14;;;;;;;0.47;0.47;;;27.30;80.20;;;;;;5063805;28;20060;-58
2022/07/19 06:28:42;;;;;;;0.32;0.32;;;27.30;80.30;;;;;;5064150;28;20052;-56
2022/07/19 06:31:14;;;;;;;0.32;0.32;;;27.30;80.30;;;;;;5060277;28;20037;-55
2022/07/19 06:33:44;;;;;;;1.05;0.93;;;27.30;80.30;;;;;;5060813;28;20056;-54
2022/07/19 06:36:11;;;;;;;0.30;0.30;;;27.30;80.30;;;;;;5051369;28;20052;-56
2022/07/19 06:38:39;;;;;;;;;;;27.30;80.30;;;;;;5048915;28;20056;-55
2022/07/19 06:41:06;;;;;;;0.20;0.20;;;27.30;80.30;;;;;;5065927;28;19924;-54
2022/07/19 06:43:34;;;;;;;1.17;0.43;;;27.30;80.30;;;;;;5055580;28;20041;-54
2022/07/19 06:46:02;;;;;;;1.25;0.82;;;27.20;80.30;;;;;;5063122;28;20056;-53
2022/07/19 06:48:29;;;;;;;0.30;0.30;;;27.30;80.40;;;;;;5048483;28;20052;-51
2022/07/19 06:50:57;;;;;;;0.40;0.40;;;27.20;80.40;;;;;;5060451;28;20051;-57
2022/07/19 06:53:24;;;;;;;;;;;27.20;80.40;;;;;;5047818;28;20533;-56
2022/07/19 06:55:51;;;;;;;;;;;27.30;80.50;;;;;;5053652;28;19924;-52
2022/07/19 06:58:19;;;;;;;0.50;0.40;;;27.20;80.40;;;;;;5048515;28;19924;-53
2022/07/19 07:00:48;;;;;;;0.50;0.50;;;27.20;81.10;;;;;;5055589;28;20056;-53
2022/07/19 07:03:19;;;;;;;0.60;0.57;;;27.30;80.60;;;;;;5057260;28;20044;-55
2022/07/19 07:05:46;;;;;;;0.82;0.60;;;27.30;80.60;;;;;;5054388;28;20508;-56
2022/07/19 07:08:14;;;;;;;0.30;0.30;;;27.30;80.60;;;;;;5047865;28;20430;-55
2022/07/19 07:10:41;;;;;;;;;;;27.30;80.60;;;;;;5055690;28;20497;-56
2022/07/19 07:13:08;;;;;;;;;;;27.30;80.60;;;;;;5058167;28;20335;-55
2022/07/19 07:15:38;;;;;;;1.35;0.77;;;27.20;80.60;;;;;;5047762;28;19920;-56
2022/07/19 07:18:05;;;;;;;0.65;0.65;;;27.30;80.70;;;;;;5033683;28;20055;-52
2022/07/19 07:20:34;;;;;;;0.30;0.30;;;27.30;80.70;;;;;;5052633;28;20053;-54
2022/07/19 07:23:02;;;;;;;1.52;1.10;;;27.30;80.70;;;;;;5055164;28;20048;-56
2022/07/19 07:25:30;;;;;;;0.40;0.40;;;27.30;80.70;;;;;;5052067;28;20432;-52
2022/07/19 07:27:57;;;;;;;0.20;0.20;;;27.30;80.70;;;;;;5062046;28;20492;-53
2022/07/19 07:30:25;;;;;;;0.47;0.40;;;27.30;80.70;;;;;;5051110;28;20044;-56
2022/07/19 07:32:52;;;;;;;1.05;0.80;;;27.40;80.80;;;;;;5064933;28;20472;-53
2022/07/19 07:35:19;;;;;;;1.13;0.82;;;27.30;80.80;;;;;;5051237;28;20044;-56
2022/07/19 07:37:47;;;;;;;;;;;27.30;80.80;;;;;;5048624;28;20045;-58
2022/07/19 07:40:14;;;;;;;0.50;0.50;;;27.30;80.80;;;;;;5052054;28;19939;-54
2022/07/19 07:42:42;;;;;;;0.22;0.22;;;27.30;80.80;;;;;;5063945;28;20055;-58
2022/07/19 07:45:09;;;;;;;3.05;0.93;;;27.40;80.90;;;;;;5040083;28;20057;-57
2022/07/19 07:47:37;;;;;;;0.30;0.30;;;27.40;80.90;;;;;;5056587;28;20500;-52
2022/07/19 07:50:06;;;;;;;0.25;0.25;;;27.40;80.90;;;;;;5049757;28;20045;-53
2022/07/19 07:52:34;;;;;;;0.43;0.43;;;27.40;80.90;;;;;;5050231;28;20048;-54
2022/07/19 07:55:03;;;;;;;1.55;0.80;;;27.40;81.50;;;;;;5059666;28;20051;-52
2022/07/19 07:57:50;;;;;;;0.43;0.43;;;27.40;80.90;;;;;;5046321;28;20399;-52
2022/07/19 08:00:18;;;;;;;0.30;0.30;;;27.40;80.90;;;;;;5055156;28;20255;-53
2022/07/19 08:02:48;;;;;;;0.52;0.52;;;27.40;80.90;;;;;;5059224;28;20052;-56
2022/07/19 08:05:21;;;;;;;0.30;0.30;;;27.40;80.90;;;;;;5048315;28;20249;-51
2022/07/19 08:07:49;;;;;;;1.13;0.70;;;27.40;80.90;;;;;;5046806;28;20060;-52
2022/07/19 08:10:24;;;;;;;3.83;0.85;;;27.40;80.90;;;;;;5048214;28;20045;-58
2022/07/19 08:12:52;;;;;;;0.28;0.28;;;27.40;80.90;;;;;;5061254;28;20056;-57
2022/07/19 08:15:20;;;;;;;1.45;1.33;;;27.40;81.00;;;;;;5050785;28;20385;-54
2022/07/19 08:17:48;;;;;;;0.32;0.32;;;27.40;80.90;;;;;;5064150;28;20065;-53
2022/07/19 08:20:16;;;;;;;0.40;0.40;;;27.50;81.00;;;;;;5063809;28;20041;-52
2022/07/19 08:22:44;;;;;;;;;;;27.50;81.00;;;;;;5061534;28;20049;-55
2022/07/19 08:25:15;;;;;;;0.30;0.30;;;27.50;81.00;;;;;;5046162;28;19925;-56
2022/07/19 08:27:43;;;;;;;0.85;0.70;;;27.50;81.00;;;;;;5049742;28;20049;-59
2022/07/19 08:30:11;;;;;;;0.30;0.30;;;27.50;81.00;;;;;;5063740;28;20044;-56
2022/07/19 08:32:40;;;;;;;0.40;0.40;;;27.50;81.00;;;;;;5053378;28;20421;-53
2022/07/19 08:35:08;;;;;;;0.60;0.60;;;27.50;81.60;;;;;;5049202;28;20068;-56
2022/07/19 08:37:36;;;;;;;1.55;0.68;;;27.50;81.00;;;;;;5055307;28;20048;-57
2022/07/19 08:40:05;;;;;;;0.80;0.40;;;27.50;81.00;;;;;;5049824;28;20879;-55
2022/07/19 08:42:33;;;;;;;0.30;0.30;;;27.50;81.00;;;;;;5064697;28;20064;-56
2022/07/19 08:45:05;;;;;;;0.50;0.50;;;27.50;81.00;;;;;;5035845;28;20045;-56
2022/07/19 08:47:33;;;;;;;1.55;1.00;;;27.50;81.00;;;;;;5047284;28;20061;-53
2022/07/19 08:50:02;;;;;;;0.20;0.20;;;27.60;81.10;;;;;;5046442;28;20516;-53
2022/07/19 08:52:32;;;;;;;0.20;0.20;;;27.50;81.00;;;;;;5054521;28;20052;-51
2022/07/19 08:55:00;;;;;;;0.35;0.35;;;27.50;81.00;;;;;;5050139;28;20048;-57
2022/07/19 09:00:14;;;;;;;0.32;0.32;;;27.60;81.10;;;;;;5046900;28;20057;-49
2022/07/19 09:03:04;;;;;;;0.47;0.47;;;27.60;81.10;;;;;;5046080;28;20064;-56
2022/07/19 09:05:35;;;;;;;0.30;0.30;;;27.60;81.10;;;;;;5052176;28;20056;-56
2022/07/19 09:08:06;;;;;;;2.60;0.85;;;27.60;81.10;;;;;;5054302;28;20530;-56
2022/07/19 09:10:37;;;;;;;0.40;0.40;;;27.60;81.10;;;;;;5047591;28;20092;-54
2022/07/19 09:13:24;;;;;;;0.25;0.25;;;27.50;81.00;;;;;;5059521;28;20045;-56
2022/07/19 09:15:54;;;;;;;0.28;0.28;;;27.60;81.10;;;;;;5045921;28;20060;-54
2022/07/19 09:18:31;;;;;;;0.20;0.20;;;27.60;81.10;;;;;;5055053;28;20052;-53
2022/07/19 09:21:06;;;;;;;0.40;0.40;;;27.60;81.10;;;;;;5054440;28;20052;-56
2022/07/19 09:23:34;;;;;;;0.70;0.70;;;27.60;81.10;;;;;;5049017;28;20075;-50
2022/07/19 09:26:04;;;;;;;0.50;0.50;;;27.60;81.10;;;;;;5056679;28;20072;-52
2022/07/19 09:28:35;;;;;;;0.40;0.40;;;27.60;81.10;;;;;;5049264;28;20052;-53
2022/07/19 09:31:04;;;;;;;0.20;0.20;;;27.60;81.10;;;;;;5060361;28;20044;-52
2022/07/19 09:33:33;;;;;;;1.08;0.77;;;27.60;81.10;;;;;;5066119;28;20057;-51
2022/07/19 09:36:11;;;;;;;0.47;0.47;;;27.60;81.10;;;;;;5054769;28;20056;-50
2022/07/19 09:38:42;;;;;;;0.30;0.30;;;27.60;81.20;;;;;;5049077;28;20113;-56
2022/07/19 09:41:18;;;;;;;0.45;0.45;;;27.60;81.20;;;;;;5055036;28;20053;-53
2022/07/19 09:43:51;;;;;;;0.30;0.30;;;27.60;81.20;;;;;;5047478;28;20036;-56
2022/07/19 09:46:36;;;;;;;0.43;0.43;;;27.60;81.20;;;;;;5066584;28;20055;-52
2022/07/19 09:49:12;;;;;;;0.40;0.40;;;27.60;81.20;;;;;;5049302;28;20117;-57
2022/07/19 09:51:43;;;;;;;0.57;0.55;;;27.60;81.20;;;;;;5054923;28;20416;-55
2022/07/19 09:54:16;;;;;;;0.20;0.20;;;27.60;81.20;;;;;;5047654;28;20045;-54
2022/07/19 09:56:46;;;;;;;1.30;0.50;;;27.60;81.10;;;;;;5049912;28;20045;-55
2022/07/19 09:59:13;;;;;;;3.13;1.05;;;27.60;81.10;;;;;;5048300;28;20056;-51
2022/07/19 10:01:43;;;;;;;0.30;0.30;;;27.60;81.10;;;;;;5054107;28;20052;-52
2022/07/19 10:04:13;;;;;;;0.20;0.20;;;27.60;81.10;;;;;;5056243;28;20391;-56
2022/07/19 10:06:41;;;;;;;0.47;0.47;;;27.60;81.10;;;;;;5054390;28;20052;-54
2022/07/19 10:09:12;;;;;;;0.30;0.30;;;27.60;81.10;;;;;;5055441;28;20048;-55
2022/07/19 10:11:40;;;;;;;0.43;0.43;;;27.60;81.10;;;;;;5041817;28;20051;-53
2022/07/19 10:14:09;;;;;;;0.55;0.43;;;27.60;81.10;;;;;;5049731;28;20072;-56
2022/07/19 10:16:56;;;;;;;1.02;0.68;;;27.60;81.10;;;;;;5055657;28;20045;-52
2022/07/19 10:19:30;;;;;;;;;;;27.60;81.00;;;;;;5048150;28;20501;-56
2022/07/19 10:21:58;;;;;;;0.50;0.50;;;27.60;81.00;;;;;;5054600;28;20399;-56
2022/07/19 10:24:49;;;;;;;0.30;0.30;;;27.60;81.00;;;;;;5055917;28;20067;-57
2022/07/19 10:27:36;;;;;;;0.63;0.63;;;27.60;81.00;;;;;;5059436;28;20064;-54
2022/07/19 10:30:10;;;;;;;0.20;0.20;;;27.60;81.00;;;;;;5047493;28;20049;-58
2022/07/19 10:32:47;;;;;;;0.20;0.20;;;27.60;81.00;;;;;;5047487;28;20152;-52
2022/07/19 10:35:22;;;;;;;0.30;0.30;;;27.60;81.00;;;;;;5053197;28;20044;-56
2022/07/19 10:38:00;;;;;;;0.40;0.40;;;27.60;81.00;;;;;;5056518;28;20439;-55
2022/07/19 10:40:36;;;;;;;;;;;27.60;81.00;;;;;;5052585;28;20049;-57
2022/07/19 10:43:06;;;;;;;0.20;0.20;;;27.60;81.00;;;;;;5056471;28;19944;-54
2022/07/19 10:45:33;;;;;;;1.02;0.80;;;27.60;81.00;;;;;;5061031;28;20060;-54
2022/07/19 10:48:02;;;;;;;0.55;0.45;;;27.60;81.00;;;;;;5032868;28;20055;-53
2022/07/19 10:50:47;;;;;;;0.35;0.35;;;27.60;81.00;;;;;;5055810;28;20037;-48
2022/07/19 10:53:39;;;;;;;1.00;0.70;;;27.60;81.00;;;;;;5052011;28;20048;-49
2022/07/19 10:56:18;;;;;;;0.65;0.50;;;27.60;81.00;;;;;;5058247;28;20041;-52
2022/07/19 10:58:54;;;;;;;1.33;0.98;;;27.60;81.30;;;;;;5068809;28;20434;-54
2022/07/19 11:01:22;;;;;;;0.30;0.30;;;27.60;82.10;;;;;;5063583;28;20056;-54
2022/07/19 11:03:53;;;;;;;0.20;0.20;;;27.60;82.60;;;;;;5062395;28;20053;-56
2022/07/19 11:06:25;;;;;;;0.30;0.30;;;27.60;82.90;;;;;;5064324;28;20041;-52
2022/07/19 11:08:56;;;;;;;0.20;0.20;;;27.60;84.40;;;;;;5062491;28;20397;-52
2022/07/19 11:11:26;;;;;;;0.20;0.20;;;27.60;84.70;;;;;;5042914;28;20059;-54
2022/07/19 11:13:57;;;;;;;0.52;0.52;;;27.60;84.60;;;;;;5062026;28;20243;-56
2022/07/19 11:16:27;;;;;;;6.32;2.38;;;27.60;84.60;;;;;;5059446;28;20508;-55
2022/07/19 11:19:05;;;;;;;0.43;0.43;;;27.60;84.50;;;;;;5063903;28;20056;-56
2022/07/19 11:21:36;;;;;;;1.25;0.65;;;27.60;84.50;;;;;;5061015;28;20041;-55
2022/07/19 11:24:04;;;;;;;0.30;0.30;;;27.60;84.40;;;;;;5061887;28;20420;-57
2022/07/19 11:26:37;;;;;;;2.38;1.15;;;27.70;84.80;;;;;;5068136;28;20040;-56
2022/07/19 11:29:12;;;;;;;0.75;0.73;;;27.70;85.50;;;;;;5066946;28;20052;-53
2022/07/19 11:31:47;;;;;;;0.82;0.82;;;27.80;85.80;;;;;;5063352;28;20067;-57
2022/07/19 11:34:15;;;;;;;0.45;0.45;;;27.80;86.40;;;;;;5061853;28;20523;-57
2022/07/19 11:36:42;;;;;;;;;;;27.80;86.90;;;;;;5060384;28;20040;-63
2022/07/19 11:39:09;;;;;;;1.55;0.85;;;27.80;87.40;;;;;;5059594;28;19951;-60
2022/07/19 11:41:37;;;;;;;0.40;0.40;;;27.80;87.50;;;;;;5065458;28;20051;-61
2022/07/19 11:44:06;;;;;;;0.40;0.40;;;27.80;88.00;;;;;;5065113;28;20053;-55
2022/07/19 11:46:40;;;;;;;0.70;0.70;;;27.80;88.40;;;;;;5062561;28;20059;-58
2022/07/19 11:49:10;;;;;;;0.63;0.50;;;27.80;89.00;;;;;;5065672;28;20040;-56
2022/07/19 11:51:38;;;;;;;1.08;0.55;;;27.90;89.10;;;;;;5049901;28;20049;-56
2022/07/19 11:54:06;;;;;;;1.20;1.10;;;27.80;89.50;;;;;;5066392;28;20063;-56
2022/07/19 11:56:35;;;;;;;1.00;0.90;;;27.80;89.50;;;;;;5065415;28;20488;-54
2022/07/19 11:59:07;;;;;;;0.50;0.50;;;27.80;89.90;;;;;;5046480;28;20052;-58
2022/07/19 12:01:39;;;;;;;0.35;0.35;;;27.80;89.90;;;;;;5063497;28;20059;-56
2022/07/19 12:04:10;;;;;;;0.60;0.60;;;27.80;89.90;;;;;;5038866;28;20048;-55
2022/07/19 12:06:43;;;;;;;0.30;0.30;;;27.80;90.10;;;;;;5064237;28;20507;-53
2022/07/19 12:09:28;;;;;;;1.08;0.75;;;27.80;90.10;;;;;;5060558;28;20049;-59
2022/07/19 12:11:56;;;;;;;10.88;2.47;;;27.90;90.20;;;;;;5048644;28;20552;-58
2022/07/19 12:14:30;;;;;;;0.75;0.50;;;27.90;91.00;;;;;;5049100;28;20064;-51
2022/07/19 12:17:21;;;;;;;1.88;0.80;;;27.90;90.30;;;;;;5051995;28;20071;-56
2022/07/19 12:20:07;;;;;;;0.70;0.47;;;27.90;90.30;;;;;;5059276;28;20408;-55
2022/07/19 12:22:54;;;;;;;1.35;1.00;;;27.90;90.50;;;;;;5048510;28;20060;-58
2022/07/19 12:25:38;;;;;;;0.57;0.57;;;27.90;90.60;;;;;;5054880;28;20372;-57
2022/07/19 12:28:05;;;;;;;0.30;0.30;;;28.00;90.60;;;;;;5048004;28;20047;-58
2022/07/19 12:30:33;;;;;;;;;;;28.00;90.60;;;;;;5060864;28;20051;-57
2022/07/19 12:33:12;;;;;;;6.05;2.75;;;28.00;90.70;;;;;;5059159;28;20585;-57
2022/07/19 12:35:45;;;;;;;1.17;0.82;;;28.00;90.80;;;;;;5063750;28;20045;-61
2022/07/19 12:38:14;;;;;;;1.30;1.15;;;28.00;91.00;;;;;;5054325;28;20049;-61
2022/07/19 12:40:43;;;;;;;0.50;0.50;;;28.10;91.00;;;;;;5050414;28;20053;-57
2022/07/19 12:43:14;;;;;;;1.15;0.82;;;28.10;91.30;;;;;;5052529;28;20048;-58
2022/07/19 12:45:46;;;;;;;0.20;0.20;;;28.10;91.10;;;;;;5047264;28;20049;-60
2022/07/19 12:48:16;;;;;;;2.47;1.17;;;28.10;91.10;;;;;;5051625;28;20061;-61
2022/07/19 12:50:48;;;;;;;0.45;0.45;;;28.10;91.20;;;;;;5054503;28;20471;-52
2022/07/19 12:53:20;;;;;;;1.55;0.98;;;28.10;91.30;;;;;;5055129;28;20041;-56
2022/07/19 12:55:48;;;;;;;0.30;0.30;;;28.10;91.30;;;;;;5057275;28;20055;-55
2022/07/19 13:01:05;;;;;;;0.70;0.65;;;28.20;91.30;;;;;;5053489;28;20353;-53
2022/07/19 13:03:33;;;;;;;0.65;0.65;;;28.20;91.20;;;;;;5049230;28;20049;-58
2022/07/19 13:06:00;;;;;;;;;;;28.20;91.10;;;;;;5053747;28;20466;-56
2022/07/19 13:08:27;;;;;;;5.15;2.47;;;28.20;91.30;;;;;;5052695;28;19948;-54
2022/07/19 13:10:56;;;;;;;0.52;0.52;;;28.20;91.60;;;;;;5063253;28;20052;-55